Time;durP1;ratioP1;P1;durP2;ratioP2;P2;SDS_P1;SDS_P2;PMS_P1;PMS_P2;Temp;Humidity;BMP_temperature;BMP_pressure;BME280_temperature;BME280_humidity;BME280_pressure;Samples;Min_cycle;Max_cycle;Signal;HPM_P1;HPM_P2
2022/02/26 00:01:48;;;;;;;9.98;1.80;;;;;;;3.87;100.00;103273.25;5107168;28;20040;-33
2022/02/26 00:04:17;;;;;;;10.85;1.75;;;;;;;3.86;100.00;103280.69;5099029;28;20042;-31
2022/02/26 00:06:44;;;;;;;14.57;1.83;;;;;;;3.85;100.00;103284.50;5107711;28;20055;-36
2022/02/26 00:09:12;;;;;;;8.90;1.63;;;;;;;3.84;100.00;103288.31;5099616;28;20027;-33
2022/02/26 00:11:40;;;;;;;18.42;2.20;;;;;;;3.84;100.00;103287.44;5106814;28;20055;-34
2022/02/26 00:14:08;;;;;;;12.55;1.75;;;;;;;3.81;100.00;103284.03;5099574;28;20046;-33
2022/02/26 00:16:38;;;;;;;11.23;1.50;;;;;;;3.79;100.00;103291.69;5107220;28;20048;-38
2022/02/26 00:19:07;;;;;;;11.57;1.58;;;;;;;3.77;100.00;103288.25;5099160;28;20044;-36
2022/02/26 00:21:35;;;;;;;14.23;1.55;;;;;;;3.77;100.00;103304.81;5107358;28;20052;-35
2022/02/26 00:24:03;;;;;;;8.85;1.33;;;;;;;3.75;100.00;103295.88;5101168;28;20067;-34
2022/02/26 00:26:31;;;;;;;4.93;1.25;;;;;;;3.73;100.00;103305.41;5095919;28;20054;-37
2022/02/26 00:28:59;;;;;;;12.30;1.58;;;;;;;3.72;100.00;103301.78;5100943;28;20043;-30
2022/02/26 00:31:26;;;;;;;9.25;1.88;;;;;;;3.71;100.00;103299.22;5097636;28;20047;-32
2022/02/26 00:33:54;;;;;;;9.20;1.30;;;;;;;3.68;100.00;103313.41;5100875;28;20048;-33
2022/02/26 00:36:24;;;;;;;6.88;1.10;;;;;;;3.64;100.00;103310.16;5097494;28;20063;-37
2022/02/26 00:38:51;;;;;;;10.98;1.75;;;;;;;3.60;100.00;103311.59;5099797;28;20048;-32
2022/02/26 00:41:19;;;;;;;11.57;1.92;;;;;;;3.57;100.00;103309.25;5098782;28;20083;-37
2022/02/26 00:43:47;;;;;;;12.80;2.47;;;;;;;3.57;100.00;103306.47;5103007;28;20441;-35
2022/02/26 00:46:14;;;;;;;11.40;2.05;;;;;;;3.56;100.00;103310.28;5094968;28;20446;-35
2022/02/26 00:51:30;;;;;;;6.78;1.40;;;;;;;3.50;100.00;103311.03;5099883;28;20048;-36
2022/02/26 00:53:58;;;;;;;5.88;1.20;;;;;;;3.46;100.00;103307.81;5097563;28;20040;-36
2022/02/26 00:56:25;;;;;;;6.78;1.33;;;;;;;3.40;100.00;103308.56;5101744;28;20051;-32
2022/02/26 00:58:53;;;;;;;5.22;0.80;;;;;;;3.34;100.00;103302.97;5096698;28;20055;-34
2022/02/26 01:01:21;;;;;;;4.65;1.10;;;;;;;3.26;100.00;103298.41;5102824;28;20058;-36
2022/02/26 01:03:53;;;;;;;5.72;1.02;;;;;;;3.18;100.00;103297.66;5096127;28;20044;-37
2022/02/26 01:06:20;;;;;;;4.38;1.10;;;;;;;3.09;100.00;103292.22;5104021;28;20044;-38
2022/02/26 01:08:51;;;;;;;4.57;1.00;;;;;;;3.04;100.00;103300.22;5095497;28;20047;-36
2022/02/26 01:11:18;;;;;;;5.60;0.85;;;;;;;2.96;100.00;103286.53;5104176;28;20044;-33
2022/02/26 01:13:46;;;;;;;8.85;1.38;;;;;;;2.91;100.00;103294.50;5094380;28;20047;-33
2022/02/26 01:16:14;;;;;;;5.43;0.80;;;;;;;2.85;100.00;103291.63;5103938;28;20031;-31
2022/02/26 01:18:42;;;;;;;3.92;0.77;;;;;;;2.79;100.00;103298.78;5095546;28;20040;-31
2022/02/26 01:21:10;;;;;;;6.78;0.93;;;;;;;2.74;100.00;103299.34;5102193;28;20044;-36
2022/02/26 01:23:37;;;;;;;4.80;0.90;;;;;;;2.69;100.00;103295.41;5096195;28;20044;-31
2022/02/26 01:26:06;;;;;;;6.35;1.30;;;;;;;2.63;100.00;103299.78;5100993;28;20060;-36
2022/02/26 01:28:34;;;;;;;3.90;1.02;;;;;;;2.59;100.00;103289.31;5096908;28;20031;-32
2022/02/26 01:31:02;;;;;;;3.60;0.77;;;;;;;2.53;100.00;103288.16;5099963;28;20062;-31
2022/02/26 01:33:30;;;;;;;4.95;0.88;;;;;;;2.46;100.00;103297.34;5097584;28;20099;-33
2022/02/26 01:36:00;;;;;;;3.08;0.75;;;;;;;2.39;100.00;103300.88;5098812;28;20508;-34
2022/02/26 01:38:28;;;;;;;10.52;1.80;;;;;;;2.34;100.00;103292.28;5096509;28;20045;-36
2022/02/26 01:40:57;;;;;;;4.82;1.10;;;;;;;2.28;100.00;103284.75;5099540;28;20052;-32
2022/02/26 01:43:26;;;;;;;8.18;1.50;;;;;;;2.25;100.00;103295.28;5097425;28;20060;-34
2022/02/26 01:45:54;;;;;;;8.07;1.30;;;;;;;2.21;100.00;103304.94;5102893;28;20047;-31
2022/02/26 01:48:22;;;;;;;7.22;1.20;;;;;;;2.17;100.00;103309.16;5102416;28;20073;-30
2022/02/26 01:50:50;;;;;;;6.32;1.30;;;;;;;2.12;100.00;103314.34;5102725;28;20349;-33
2022/02/26 01:53:17;;;;;;;3.60;0.68;;;;;;;2.08;100.00;103311.09;5100296;28;20425;-34
2022/02/26 01:55:45;;;;;;;5.22;1.05;;;;;;;2.04;100.00;103313.34;5105532;28;20048;-33
2022/02/26 01:58:13;;;;;;;4.03;0.80;;;;;;;1.98;100.00;103308.59;5095496;28;20043;-31
2022/02/26 02:00:42;;;;;;;5.75;1.08;;;;;;;1.97;100.00;103306.00;5095210;28;20052;-33
2022/02/26 02:03:10;;;;;;;4.35;0.90;;;;;;;1.92;100.00;103308.44;5101168;28;20426;-30
2022/02/26 02:05:38;;;;;;;6.03;1.00;;;;;;;1.87;100.00;103319.13;5095193;28;20073;-29
2022/02/26 02:08:06;;;;;;;6.55;1.30;;;;;;;1.81;100.00;103323.47;5103041;28;20051;-31
2022/02/26 02:10:35;;;;;;;7.65;1.33;;;;;;;1.79;100.00;103321.97;5094169;28;20051;-31
2022/02/26 02:13:03;;;;;;;9.50;1.45;;;;;;;1.73;100.00;103324.38;5102844;28;20043;-33
2022/02/26 02:15:35;;;;;;;4.80;1.10;;;;;;;1.70;100.00;103322.00;5094986;28;20044;-32
2022/02/26 02:18:06;;;;;;;4.43;1.02;;;;;;;1.67;100.00;103327.84;5101471;28;20048;-32
2022/02/26 02:20:34;;;;;;;8.07;1.55;;;;;;;1.65;100.00;103320.81;5095107;28;20059;-32
2022/02/26 02:23:03;;;;;;;5.00;1.00;;;;;;;1.61;100.00;103328.56;5100676;28;20055;-33
2022/02/26 02:25:33;;;;;;;5.75;0.82;;;;;;;1.59;100.00;103340.81;5097814;28;20048;-33
2022/02/26 02:28:07;;;;;;;8.63;1.40;;;;;;;1.55;100.00;103332.03;5103571;28;20055;-34
2022/02/26 02:30:34;;;;;;;9.77;1.60;;;;;;;1.52;100.00;103337.91;5106817;28;20036;-33
2022/02/26 02:33:02;;;;;;;3.65;0.90;;;;;;;1.49;100.00;103338.25;5102505;28;20043;-29
2022/02/26 02:35:32;;;;;;;6.20;1.20;;;;;;;1.45;100.00;103339.63;5100302;28;20048;-30
2022/02/26 02:38:03;;;;;;;3.30;0.90;;;;;;;1.44;100.00;103334.31;5102182;28;20553;-36
2022/02/26 02:40:32;;;;;;;4.65;0.82;;;;;;;1.41;100.00;103346.53;5099738;28;20051;-31
2022/02/26 02:43:00;;;;;;;4.43;1.00;;;;;;;1.37;100.00;103340.53;5103057;28;20482;-30
2022/02/26 02:45:29;;;;;;;8.20;0.90;;;;;;;1.35;100.00;103348.13;5100393;27;20048;-32
2022/02/26 02:47:57;;;;;;;5.90;0.93;;;;;;;1.33;100.00;103349.31;5101748;28;20055;-32
2022/02/26 02:50:24;;;;;;;7.30;1.58;;;;;;;1.29;100.00;103353.47;5102221;28;20040;-33
2022/02/26 02:52:52;;;;;;;3.63;0.85;;;;;;;1.25;100.00;103336.44;5099581;28;20059;-35
2022/02/26 02:55:24;;;;;;;4.50;0.88;;;;;;;1.22;100.00;103347.78;5104242;28;20433;-37
2022/02/26 02:57:52;;;;;;;6.13;1.00;;;;;;;1.20;100.00;103343.53;5099077;28;20063;-33
2022/02/26 03:00:20;;;;;;;7.13;1.20;;;;;;;1.19;100.00;103344.56;5105209;28;20040;-36
2022/02/26 03:02:48;;;;;;;6.60;1.17;;;;;;;1.16;100.00;103344.91;5098574;28;20051;-34
2022/02/26 03:05:18;;;;;;;5.18;0.80;;;;;;;1.15;100.00;103354.19;5106262;28;20124;-35
2022/02/26 03:07:46;;;;;;;6.57;0.90;;;;;;;1.13;100.00;103343.38;5097979;28;20051;-33
2022/02/26 03:10:14;;;;;;;5.45;1.10;;;;;;;1.12;100.00;103349.03;5106343;28;20044;-34
2022/02/26 03:12:49;;;;;;;5.40;0.93;;;;;;;1.09;100.00;103357.63;5098499;28;20048;-35
2022/02/26 03:15:18;;;;;;;3.45;0.88;;;;;;;1.06;100.00;103346.97;5105619;28;20047;-29
2022/02/26 03:17:46;;;;;;;4.90;0.90;;;;;;;1.03;100.00;103354.53;5098081;28;20062;-32
2022/02/26 03:20:14;;;;;;;7.53;1.25;;;;;;;1.00;100.00;103352.16;5105582;28;20059;-35
2022/02/26 03:22:42;;;;;;;7.15;1.23;;;;;;;0.98;100.00;103361.63;5098340;28;20418;-29
2022/02/26 03:25:10;;;;;;;6.57;1.35;;;;;;;0.96;100.00;103355.44;5104649;28;20044;-34
2022/02/26 03:27:38;;;;;;;6.25;1.20;;;;;;;0.94;100.00;103357.50;5099010;28;20470;-40
2022/02/26 03:30:09;;;;;;;7.90;1.55;;;;;;;0.90;100.00;103354.25;5102063;28;20039;-34
2022/02/26 03:32:38;;;;;;;4.32;1.10;;;;;;;0.89;100.00;103355.25;5105902;28;20437;-32
2022/02/26 03:35:07;;;;;;;4.90;1.00;;;;;;;0.87;100.00;103345.47;5101221;28;20044;-36
2022/02/26 03:37:35;;;;;;;9.50;1.23;;;;;;;0.83;100.00;103357.84;5105654;28;20056;-35
2022/02/26 03:40:05;;;;;;;6.88;1.40;;;;;;;0.81;100.00;103366.25;5104238;28;20487;-35
2022/02/26 03:42:33;;;;;;;11.77;1.60;;;;;;;0.80;100.00;103374.72;5105804;28;20081;-31
2022/02/26 03:45:02;;;;;;;10.68;1.80;;;;;;;0.80;100.00;103370.03;5104476;28;20105;-31
2022/02/26 03:47:31;;;;;;;8.93;1.55;;;;;;;0.80;100.00;103372.78;5105657;28;20048;-33
2022/02/26 03:49:59;;;;;;;9.32;1.60;;;;;;;0.80;100.00;103375.53;5104495;28;20490;-33
2022/02/26 03:52:33;;;;;;;10.02;1.30;;;;;;;0.79;100.00;103384.84;5105729;28;20044;-33
2022/02/26 03:55:02;;;;;;;12.27;1.92;;;;;;;0.80;100.00;103383.78;5105229;28;20055;-31
2022/02/26 03:57:30;;;;;;;11.30;2.05;;;;;;;0.82;100.00;103389.09;5102286;28;20039;-31
2022/02/26 03:59:58;;;;;;;8.68;1.70;;;;;;;0.84;100.00;103389.78;5106950;28;20043;-35
2022/02/26 04:02:26;;;;;;;8.43;1.55;;;;;;;0.84;100.00;103385.16;5100338;28;20043;-33
2022/02/26 04:04:55;;;;;;;12.15;2.08;;;;;;;0.86;100.00;103396.84;5107688;28;20056;-35
2022/02/26 04:07:23;;;;;;;4.28;1.23;;;;;;;0.89;100.00;103388.25;5099772;28;20406;-37
2022/02/26 04:09:50;;;;;;;6.30;0.95;;;;;;;0.90;100.00;103389.13;5106674;28;20050;-34
2022/02/26 04:12:18;;;;;;;13.80;1.48;;;;;;;0.88;100.00;103389.28;5099735;28;20042;-29
2022/02/26 04:14:46;;;;;;;4.95;1.10;;;;;;;0.84;100.00;103387.91;5107362;28;20051;-34
2022/02/26 04:17:14;;;;;;;5.65;1.00;;;;;;;0.81;100.00;103396.50;5097474;28;20040;-37
2022/02/26 04:19:42;;;;;;;4.05;1.20;;;;;;;0.78;100.00;103387.75;5107269;28;20424;-33
2022/02/26 04:22:11;;;;;;;4.40;1.00;;;;;;;0.76;100.00;103390.69;5100346;28;20508;-32
2022/02/26 04:24:39;;;;;;;3.83;0.90;;;;;;;0.75;100.00;103391.69;5106119;28;20052;-33
2022/02/26 04:27:07;;;;;;;8.68;1.15;;;;;;;0.73;100.00;103403.91;5102284;28;20055;-37
2022/02/26 04:29:34;;;;;;;6.65;1.60;;;;;;;0.71;100.00;103405.94;5104728;28;20044;-34
2022/02/26 04:32:02;;;;;;;8.30;1.50;;;;;;;0.68;100.00;103409.91;5102334;28;20040;-33
2022/02/26 04:34:30;;;;;;;5.55;1.05;;;;;;;0.65;100.00;103415.72;5105211;28;20468;-39
2022/02/26 04:36:59;;;;;;;5.70;1.40;;;;;;;0.62;100.00;103410.56;5103102;28;20064;-36
2022/02/26 04:39:28;;;;;;;4.20;1.10;;;;;;;0.59;100.00;103414.56;5103875;28;20065;-34
2022/02/26 04:41:56;;;;;;;4.05;1.30;;;;;;;0.57;100.00;103418.50;5103316;28;20077;-34
2022/02/26 04:44:24;;;;;;;6.93;1.40;;;;;;;0.53;100.00;103409.72;5104403;28;20052;-33
2022/02/26 04:46:52;;;;;;;6.57;1.70;;;;;;;0.52;100.00;103416.25;5103414;28;20387;-34
2022/02/26 04:49:19;;;;;;;10.02;1.75;;;;;;;0.51;100.00;103417.28;5101273;28;20040;-34
2022/02/26 04:51:48;;;;;;;5.07;1.48;;;;;;;0.51;100.00;103413.66;5103931;28;20417;-34
2022/02/26 04:54:16;;;;;;;8.55;1.90;;;;;;;0.47;100.00;103415.03;5099335;28;20043;-33
2022/02/26 04:56:45;;;;;;;5.93;1.10;;;;;;;0.46;100.00;103414.16;5105268;28;20240;-31
2022/02/26 04:59:13;;;;;;;8.70;1.63;;;;;;;0.45;100.00;103415.19;5097611;28;20071;-37
2022/02/26 05:01:41;;;;;;;8.00;1.50;;;;;;;0.43;100.00;103420.00;5106080;28;20035;-35
2022/02/26 05:04:08;;;;;;;6.05;1.45;;;;;;;0.44;100.00;103421.72;5097816;28;20043;-38
2022/02/26 05:06:36;;;;;;;7.10;1.40;;;;;;;0.43;100.00;103417.25;5105386;28;20043;-33
2022/02/26 05:09:04;;;;;;;7.30;1.65;;;;;;;0.43;100.00;103422.75;5098453;28;20048;-32
2022/02/26 05:11:32;;;;;;;6.18;1.10;;;;;;;0.41;100.00;103429.44;5106489;28;20039;-36
2022/02/26 05:14:03;;;;;;;6.45;1.60;;;;;;;0.40;100.00;103422.25;5097686;28;20066;-33
2022/02/26 05:16:31;;;;;;;5.93;1.40;;;;;;;0.38;100.00;103432.53;5106269;28;20405;-35
2022/02/26 05:18:59;;;;;;;4.68;1.20;;;;;;;0.36;100.00;103438.19;5099884;28;20456;-33
2022/02/26 05:21:26;;;;;;;7.18;1.67;;;;;;;0.33;100.00;103436.66;5103989;28;20055;-31
2022/02/26 05:23:54;;;;;;;5.90;1.20;;;;;;;0.33;100.00;103438.53;5101998;28;20048;-32
2022/02/26 05:26:22;;;;;;;5.70;1.40;;;;;;;0.31;100.00;103440.59;5103512;28;20036;-32
2022/02/26 05:28:50;;;;;;;3.92;1.30;;;;;;;0.30;100.00;103433.38;5101556;28;20051;-29
2022/02/26 05:31:19;;;;;;;8.10;2.45;;;;;;;0.30;100.00;103438.88;5104956;28;20040;-32
2022/02/26 05:33:47;;;;;;;6.20;1.67;;;;;;;0.29;100.00;103449.00;5102272;28;20044;-32
2022/02/26 05:36:15;;;;;;;9.15;2.20;;;;;;;0.29;100.00;103450.88;5103627;28;20052;-33
2022/02/26 05:38:42;;;;;;;8.18;1.83;;;;;;;0.29;100.00;103451.72;5102651;28;20055;-34
2022/02/26 05:41:10;;;;;;;7.85;2.10;;;;;;;0.28;100.00;103452.75;5102293;28;20090;-34
2022/02/26 05:43:38;;;;;;;13.77;2.47;;;;;;;0.27;100.00;103458.41;5103041;28;20051;-32
2022/02/26 05:46:06;;;;;;;4.50;1.25;;;;;;;0.26;100.00;103459.44;5095877;28;20479;-33
2022/02/26 05:48:35;;;;;;;7.00;1.58;;;;;;;0.24;100.00;103464.25;5094090;28;20140;-32
2022/02/26 05:51:03;;;;;;;4.60;1.30;;;;;;;0.21;100.00;103468.16;5102526;28;20051;-32
2022/02/26 05:53:30;;;;;;;4.70;1.15;;;;;;;0.20;100.00;103458.22;5095350;28;20058;-33
2022/02/26 05:55:58;;;;;;;7.95;2.35;;;;;;;0.20;100.00;103465.63;5102424;28;20067;-30
2022/02/26 05:58:26;;;;;;;10.38;2.30;;;;;;;0.21;100.00;103475.56;5095437;28;20051;-36
2022/02/26 06:00:55;;;;;;;7.55;1.90;;;;;;;0.23;100.00;103470.75;5102993;28;20048;-34
2022/02/26 06:03:23;;;;;;;8.25;2.20;;;;;;;0.24;100.00;103467.84;5094651;28;20133;-32
2022/02/26 06:05:53;;;;;;;6.35;2.20;;;;;;;0.28;100.00;103471.13;5101878;28;20070;-30
2022/02/26 06:08:20;;;;;;;12.25;2.63;;;;;;;0.30;100.00;103469.94;5095079;28;20414;-36
2022/02/26 06:10:48;;;;;;;8.73;1.80;;;;;;;0.34;100.00;103473.22;5101395;28;20044;-36
2022/02/26 06:13:16;;;;;;;12.45;2.45;;;;;;;0.38;100.00;103471.84;5095634;28;20114;-34
2022/02/26 06:15:43;;;;;;;10.75;2.47;;;;;;;0.42;100.00;103477.84;5100175;28;20048;-33
2022/02/26 06:18:11;;;;;;;7.35;2.03;;;;;;;0.42;100.00;103481.44;5096263;28;20048;-33
2022/02/26 06:20:40;;;;;;;7.40;1.92;;;;;;;0.41;100.00;103478.88;5098668;28;20489;-35
2022/02/26 06:23:09;;;;;;;6.80;1.65;;;;;;;0.37;100.00;103480.25;5095549;28;20051;-35
2022/02/26 06:25:37;;;;;;;8.35;1.98;;;;;;;0.36;100.00;103487.63;5098737;28;20039;-33
2022/02/26 06:28:05;;;;;;;7.07;2.15;;;;;;;0.36;100.00;103495.88;5095336;28;20056;-32
2022/02/26 06:30:33;;;;;;;5.20;1.58;;;;;;;0.35;100.00;103491.41;5099853;28;20047;-29
2022/02/26 06:33:00;;;;;;;7.57;2.00;;;;;;;0.34;100.00;103500.66;5101629;28;20051;-35
2022/02/26 06:35:28;;;;;;;8.32;1.92;;;;;;;0.34;100.00;103503.41;5102263;28;20040;-36
2022/02/26 06:37:56;;;;;;;4.10;1.40;;;;;;;0.34;100.00;103509.78;5100212;28;20047;-36
2022/02/26 06:40:25;;;;;;;6.65;1.85;;;;;;;0.36;100.00;103514.25;5103866;28;20413;-29
2022/02/26 06:42:52;;;;;;;12.43;1.95;;;;;;;0.35;100.00;103507.88;5099273;28;20062;-38
2022/02/26 06:45:20;;;;;;;13.82;2.50;;;;;;;0.38;100.00;103515.78;5104260;28;20535;-33
2022/02/26 06:47:48;;;;;;;11.15;2.00;;;;;;;0.42;100.00;103516.28;5097036;28;20052;-32
2022/02/26 06:50:16;;;;;;;9.80;2.13;;;;;;;0.46;100.00;103520.44;5104934;28;20047;-32
2022/02/26 06:52:43;;;;;;;7.20;1.75;;;;;;;0.48;100.00;103519.25;5096437;28;20054;-35
2022/02/26 06:55:14;;;;;;;11.65;2.92;;;;;;;0.49;100.00;103523.72;5105516;28;20043;-34
2022/02/26 06:57:47;;;;;;;10.97;2.33;;;;;;;0.51;100.00;103518.91;5096590;28;20052;-32
2022/02/26 07:00:15;;;;;;;11.45;2.13;;;;;;;0.51;100.00;103526.28;5102979;28;20300;-32
2022/02/26 07:02:43;;;;;;;9.18;2.40;;;;;;;0.53;100.00;103521.50;5095709;28;20062;-31
2022/02/26 07:05:12;;;;;;;11.93;2.78;;;;;;;0.54;100.00;103525.97;5104076;28;20092;-32
2022/02/26 07:07:40;;;;;;;19.48;3.25;;;;;;;0.57;100.00;103522.88;5096836;28;20417;-29
2022/02/26 07:10:09;;;;;;;10.18;2.53;;;;;;;0.60;100.00;103523.38;5102972;28;20039;-36
2022/02/26 07:12:36;;;;;;;6.57;2.17;;;;;;;0.64;100.00;103529.41;5099610;28;20089;-34
2022/02/26 07:15:07;;;;;;;7.40;2.10;;;;;;;0.66;100.00;103527.34;5104989;28;20039;-33
2022/02/26 07:17:39;;;;;;;11.88;2.67;;;;;;;0.68;100.00;103530.81;5101562;28;20043;-32
2022/02/26 07:20:08;;;;;;;10.52;2.72;;;;;;;0.73;100.00;103524.81;5101975;28;20513;-33
2022/02/26 07:22:36;;;;;;;10.35;2.45;;;;;;;0.82;100.00;103526.53;5103440;28;20036;-31
2022/02/26 07:25:04;;;;;;;12.52;2.80;;;;;;;1.01;100.00;103531.69;5095044;28;20043;-35
2022/02/26 07:27:34;;;;;;;10.27;2.70;;;;;;;1.21;100.00;103522.09;5099846;28;20047;-34
2022/02/26 07:30:01;;;;;;;12.23;2.97;;;;;;;1.45;100.00;103534.97;5096802;28;20398;-32
2022/02/26 07:32:30;;;;;;;9.10;2.85;;;;;;;1.73;100.00;103530.81;5100538;28;20052;-32
2022/02/26 07:34:59;;;;;;;12.60;3.42;;;;;;;2.00;100.00;103540.53;5098813;28;20052;-34
2022/02/26 07:37:27;;;;;;;7.80;2.42;;;;;;;2.19;100.00;103533.78;5099106;28;20170;-35
2022/02/26 07:39:55;;;;;;;11.45;2.75;;;;;;;2.34;100.00;103532.00;5101536;28;20062;-32
2022/02/26 07:42:23;;;;;;;9.82;3.22;;;;;;;2.45;100.00;103535.38;5096502;28;20109;-38
2022/02/26 07:44:50;;;;;;;15.93;3.63;;;;;;;2.54;100.00;103528.78;5103203;28;20422;-34
2022/02/26 07:47:18;;;;;;;13.70;3.40;;;;;;;2.66;100.00;103536.47;5096255;28;20501;-35
2022/02/26 07:49:48;;;;;;;12.05;4.53;;;;;;;2.79;100.00;103543.31;5103780;28;20062;-35
2022/02/26 07:52:30;;;;;;;11.95;3.47;;;;;;;2.85;100.00;103535.13;5096561;28;20123;-38
2022/02/26 07:54:58;;;;;;;12.93;3.65;;;;;;;3.00;100.00;103530.53;5103518;28;20643;-33
2022/02/26 07:57:26;;;;;;;8.75;3.40;;;;;;;3.17;100.00;103533.22;5096188;28;20493;-37
2022/02/26 07:59:54;;;;;;;13.20;3.63;;;;;;;3.37;100.00;103543.56;5103656;28;20044;-31
2022/02/26 08:02:22;;;;;;;11.35;3.63;;;;;;;3.47;100.00;103540.53;5095325;28;20060;-31
2022/02/26 08:04:53;;;;;;;13.40;3.58;;;;;;;3.58;100.00;103548.38;5104316;28;20147;-34
2022/02/26 08:07:21;;;;;;;10.70;3.95;;;;;;;3.80;100.00;103560.38;5097023;28;20052;-37
2022/02/26 08:09:49;;;;;;;16.30;4.30;;;;;;;4.09;100.00;103557.66;5103823;28;20051;-33
2022/02/26 08:12:17;;;;;;;12.13;4.18;;;;;;;4.43;100.00;103553.44;5097139;28;20122;-37
2022/02/26 08:14:44;;;;;;;9.43;3.58;;;;;;;4.83;100.00;103557.56;5107089;28;20086;-34
2022/02/26 08:17:12;;;;;;;10.45;3.78;;;;;;;5.12;100.00;103559.38;5098256;28;20043;-36
2022/02/26 08:19:40;;;;;;;10.52;3.83;;;;;;;5.40;100.00;103549.22;5101235;28;20068;-39
2022/02/26 08:22:09;;;;;;;12.60;4.22;;;;;;;5.63;100.00;103562.00;5098904;28;20125;-30
2022/02/26 08:24:37;;;;;;;15.02;4.25;;;;;;;5.93;100.00;103557.16;5099453;28;20058;-39
2022/02/26 08:27:06;;;;;;;12.82;3.55;;;;;;;6.26;100.00;103568.44;5105771;28;20055;-33
2022/02/26 08:29:34;;;;;;;9.02;3.60;;;;;;;6.59;100.00;103565.88;5103200;28;20082;-36
2022/02/26 08:32:11;;;;;;;11.83;3.60;;;;;;;6.90;100.00;103578.16;4518835;28;10001438;-38
2022/02/26 08:34:39;;;;;;;17.73;4.72;;;;;;;7.19;100.00;103565.84;5087137;28;20048;-32
2022/02/26 08:37:06;;;;;;;11.13;3.63;;;;;;;7.66;100.00;103566.75;4197035;28;10000965;-36
2022/02/26 08:39:35;;;;;;;13.00;3.72;;;;;;;7.90;100.00;103574.44;5078358;28;20055;-33
2022/02/26 08:42:04;;;;;;;11.85;3.63;;;;;;;8.14;100.00;103569.28;5080186;28;20118;-33
2022/02/26 08:44:33;;;;;;;13.50;3.33;;;;;;;8.20;100.00;103568.41;5076232;28;20117;-34
2022/02/26 08:47:03;;;;;;;10.52;3.20;;;;;;;8.22;100.00;103571.81;5085348;28;20055;-37
2022/02/26 08:49:31;;;;;;;12.20;3.65;;;;;;;8.28;100.00;103570.97;5078466;28;20071;-37
2022/02/26 08:52:00;;;;;;;7.95;3.40;;;;;;;8.32;100.00;103572.28;5077703;28;20441;-36
2022/02/26 08:54:31;;;;;;;12.90;3.30;;;;;;;8.34;100.00;103578.47;5085478;28;20150;-36
2022/02/26 08:57:01;;;;;;;11.77;3.75;;;;;;;8.30;100.00;103575.25;5077884;28;20032;-36
2022/02/26 08:59:29;;;;;;;13.43;3.60;;;;;;;8.72;100.00;103573.00;5083381;28;20462;-33
2022/02/26 09:01:57;;;;;;;12.25;3.22;;;;;;;9.16;100.00;103571.28;5077993;28;20036;-33
2022/02/26 09:04:25;;;;;;;12.88;3.97;;;;;;;9.45;100.00;103576.22;5084713;28;20047;-30
2022/02/26 09:06:53;;;;;;;8.93;3.50;;;;;;;9.62;100.00;103571.78;5078859;28;20048;-39
2022/02/26 09:09:21;;;;;;;8.90;3.72;;;;;;;9.82;100.00;103568.84;5073727;28;20534;-37
2022/02/26 09:11:49;;;;;;;9.07;3.45;;;;;;;9.80;100.00;103565.41;5082083;28;20062;-30
2022/02/26 09:14:18;;;;;;;11.68;3.60;;;;;;;9.67;100.00;103565.53;5075029;28;20059;-37
2022/02/26 09:16:46;;;;;;;12.30;3.88;;;;;;;9.61;100.00;103577.59;5080709;28;20052;-34
2022/02/26 09:19:14;;;;;;;10.50;4.35;;;;;;;9.48;100.00;103572.13;5076951;28;20461;-39
2022/02/26 09:21:42;;;;;;;14.63;4.38;;;;;;;9.47;100.00;103573.22;5079569;28;20044;-34
2022/02/26 09:24:09;;;;;;;12.80;4.38;;;;;;;9.62;100.00;103565.38;5076870;28;20479;-35
2022/02/26 09:26:37;;;;;;;13.80;4.55;;;;;;;9.96;100.00;103572.38;5078504;28;20403;-32
2022/02/26 09:29:05;;;;;;;10.98;4.18;;;;;;;10.43;100.00;103587.59;5076392;28;20054;-39
2022/02/26 09:31:34;;;;;;;14.18;4.50;;;;;;;10.58;100.00;103584.44;5075822;28;20046;-35
2022/02/26 09:34:01;;;;;;;12.80;3.95;;;;;;;10.61;100.00;103575.56;5076679;28;20053;-36
2022/02/26 09:36:29;;;;;;;10.88;3.92;;;;;;;10.51;100.00;103572.47;5082307;28;20154;-38
2022/02/26 09:38:57;;;;;;;11.32;3.92;;;;;;;10.54;100.00;103581.25;5081087;28;20059;-35
2022/02/26 09:41:25;;;;;;;10.98;3.67;;;;;;;10.68;100.00;103585.56;5083157;28;20056;-36
2022/02/26 09:43:55;;;;;;;11.23;3.47;;;;;;;10.82;100.00;103586.25;5079340;28;20147;-38
2022/02/26 09:46:24;;;;;;;15.30;3.97;;;;;;;10.98;99.85;103593.16;5085663;28;20074;-33
2022/02/26 09:48:53;;;;;;;9.35;3.78;;;;;;;11.18;100.00;103582.56;5076773;28;20111;-36
2022/02/26 09:51:22;;;;;;;7.50;2.85;;;;;;;11.51;100.00;103589.59;5085245;28;20056;-33
2022/02/26 09:53:51;;;;;;;10.30;3.50;;;;;;;11.78;95.28;103590.91;5077134;28;20067;-37
2022/02/26 09:56:22;;;;;;;9.07;3.30;;;;;;;11.76;95.12;103587.50;5084288;28;20410;-38
2022/02/26 09:58:51;;;;;;;9.23;3.10;;;;;;;11.98;96.14;103583.03;5076989;28;20498;-34
2022/02/26 10:01:19;;;;;;;10.27;3.20;;;;;;;12.27;98.13;103588.75;5084329;28;20036;-34
2022/02/26 10:03:47;;;;;;;15.02;3.40;;;;;;;12.56;94.04;103593.34;5077160;28;20450;-37
2022/02/26 10:06:18;;;;;;;9.30;2.90;;;;;;;12.87;93.81;103597.66;5084834;28;20044;-34
2022/02/26 10:08:47;;;;;;;8.27;3.08;;;;;;;12.99;90.05;103597.63;5077068;28;20056;-38
2022/02/26 10:11:23;;;;;;;8.43;2.40;;;;;;;13.04;90.38;103587.38;5073787;28;20127;-32
2022/02/26 10:13:52;;;;;;;8.75;3.15;;;;;;;12.71;86.27;103585.28;5078231;28;20044;-33
2022/02/26 10:16:41;;;;;;;9.38;2.83;;;;;;;12.66;88.51;103593.56;5082982;28;20044;-36
2022/02/26 10:19:10;;;;;;;11.02;3.08;;;;;;;12.66;88.44;103596.38;5076714;28;20045;-39
2022/02/26 10:21:42;;;;;;;9.23;2.90;;;;;;;12.60;88.29;103588.94;5074613;28;20059;-33
2022/02/26 10:24:12;;;;;;;9.98;3.13;;;;;;;13.01;90.46;103587.84;5080204;28;20044;-38
2022/02/26 10:26:40;;;;;;;9.02;2.80;;;;;;;13.37;85.69;103585.81;5075256;28;20044;-35
2022/02/26 10:29:10;;;;;;;9.90;3.00;;;;;;;13.62;86.23;103591.00;5079027;28;20055;-35
2022/02/26 10:31:45;;;;;;;7.18;2.30;;;;;;;13.82;84.74;103584.91;5076539;28;20414;-32
2022/02/26 10:34:25;;;;;;;9.48;3.28;;;;;;;13.90;79.66;103587.31;5078295;28;20542;-37
2022/02/26 10:37:02;;;;;;;8.85;3.30;;;;;;;14.07;82.17;103591.81;5082058;28;20170;-35
2022/02/26 10:39:37;;;;;;;9.43;2.60;;;;;;;14.29;78.74;103580.63;5079141;28;20129;-38
2022/02/26 10:42:09;;;;;;;8.20;2.35;;;;;;;14.43;78.88;103582.00;5082705;28;20151;-35
2022/02/26 10:44:39;;;;;;;7.88;2.40;;;;;;;14.54;77.04;103587.78;5079559;28;20499;-34
2022/02/26 10:47:09;;;;;;;10.30;2.80;;;;;;;14.50;75.61;103590.25;5084401;28;20560;-32
2022/02/26 10:49:42;;;;;;;9.15;2.90;;;;;;;14.57;74.72;103585.28;5082060;28;20043;-36
2022/02/26 10:52:13;;;;;;;8.48;2.42;;;;;;;14.54;74.87;103588.63;5080312;28;20122;-38
2022/02/26 10:54:42;;;;;;;7.80;2.03;;;;;;;14.56;73.31;103586.41;5082166;28;20118;-32
2022/02/26 10:57:11;;;;;;;8.95;2.17;;;;;;;14.50;73.12;103578.16;5087194;28;20080;-34
2022/02/26 10:59:41;;;;;;;6.93;2.38;;;;;;;14.53;72.90;103583.25;5082932;28;20067;-37
2022/02/26 11:02:13;;;;;;;7.63;2.67;;;;;;;14.43;72.03;103581.13;5085455;28;20121;-33
2022/02/26 11:04:41;;;;;;;8.40;2.35;;;;;;;14.69;74.16;103579.53;5082888;28;20040;-37
2022/02/26 11:07:10;;;;;;;9.00;1.98;;;;;;;14.83;71.96;103578.88;5084725;28;20047;-31
2022/02/26 11:09:43;;;;;;;;;;;;;;;14.76;58.39;103581.06;5083724;28;20062;-36
2022/02/26 11:12:14;;;;;;;9.48;1.48;;;;;;;14.34;67.81;103588.28;5083408;28;19955;-37
2022/02/26 11:14:45;;;;;;;6.22;1.20;;;;;;;13.82;69.26;103588.56;5077576;28;20086;-40
2022/02/26 11:17:14;;;;;;;5.80;1.27;;;;;;;13.42;70.26;103588.69;5081316;28;20053;-36
2022/02/26 11:19:47;;;;;;;3.72;1.08;;;;;;;13.16;71.03;103592.97;5077463;28;20562;-35
2022/02/26 11:22:16;;;;;;;7.50;1.50;;;;;;;12.80;71.52;103585.72;5081933;28;20048;-33
2022/02/26 11:24:47;;;;;;;5.80;1.45;;;;;;;12.74;72.94;103583.94;5082339;28;20067;-34
2022/02/26 11:27:15;;;;;;;5.80;1.38;;;;;;;12.68;71.01;103585.78;5082643;28;20045;-37
2022/02/26 11:29:47;;;;;;;8.35;1.55;;;;;;;12.69;70.68;103586.63;5076588;28;20052;-35
2022/02/26 11:32:16;;;;;;;8.68;1.20;;;;;;;12.45;69.19;103584.94;5084365;28;20032;-35